Esmeralda — PBLH — position and weather

sailwx.info

Track history (hours):
 
Tides and Currents Weather Stations Pressure Air Temp Water Temp Dewpoint Dewpoint Depression Visibility Wind Speed Wind Dir Waves Ship Positions

Esmeralda

Last reported at 2018-Jan-23 00:03 UTC. Time now 2018-Jan-23 02:23 UTC.
Position N 39°21' W 009°50'.

Length 122 m; draft 6.2 m.

Type: Cargo ship. MMSI: 246127000.

Date/timePositionNaut miles runAvg speedWind from/ knotsBaromVisibWave heightAir tempDewpointWater temp
2018-Jan-23 00:03N 39°21' W 009°50'112.1
2018-Jan-22 23:56N 39°20' W 009°50'512.0
2018-Jan-22 23:30N 39°15' W 009°50'612.0
2018-Jan-22 23:00N 39°09' W 009°50'611.9
2018-Jan-22 22:30N 39°03' W 009°50'611.8
2018-Jan-22 22:00N 38°57' W 009°50'612.0
2018-Jan-22 21:31N 38°51' W 009°50'611.8
2018-Jan-22 21:01N 38°45' W 009°50'611.8
2018-Jan-22 20:31N 38°39' W 009°49'611.8
2018-Jan-22 20:00N 38°33' W 009°47'611.6
2018-Jan-22 19:31N 38°28' W 009°46'611.7
2018-Jan-22 19:00N 38°22' W 009°44'611.6
2018-Jan-22 18:29N 38°16' W 009°42'611.7
2018-Jan-22 17:59N 38°10' W 009°41'611.9
2018-Jan-22 17:31N 38°05' W 009°40'611.6
2018-Jan-22 16:59N 37°59' W 009°38'711.7
2018-Jan-22 16:26N 37°52' W 009°36'511.9
2018-Jan-22 16:01N 37°47' W 009°35'712.1
2018-Jan-22 15:27N 37°41' W 009°33'2312.1
2018-Jan-22 13:34N 37°19' W 009°26'4211.2
2018-Jan-22 09:48N 36°42' W 008°60'512.2
2018-Jan-22 09:24N 36°41' W 008°54'16712.4
2018-Jan-21 19:55N 35°58' W 005°34'4 9.9
2018-Jan-21 19:30N 35°59' W 005°29'5 9.3
2018-Jan-21 18:58N 35°59' W 005°23'5 9.9
2018-Jan-21 18:30N 35°55' W 005°19'2 3.0
2018-Jan-21 18:00N 35°54' W 005°19'0 0.0
2018-Jan-21 17:30N 35°54' W 005°19'0 0.0
2018-Jan-21 17:00N 35°54' W 005°19'0 0.0
2018-Jan-21 16:30N 35°54' W 005°19'0 0.0
2018-Jan-21 16:01N 35°54' W 005°19'0 0.0
2018-Jan-21 15:30N 35°54' W 005°19'0 0.0
2018-Jan-21 15:00N 35°54' W 005°19'0 0.8
2018-Jan-21 14:31N 35°54' W 005°19'2 4.6
2018-Jan-21 14:00N 35°55' W 005°17'5 9.6
2018-Jan-21 13:30N 35°59' W 005°13'10910.8
2018-Jan-21 03:26N 36°18' W 003°00'2512.4
2018-Jan-21 01:26N 36°23' W 002°30'511.6
2018-Jan-21 01:00N 36°23' W 002°24'6212.5
2018-Jan-20 20:01N 37°07' W 001°29'012.8
2018-Jan-20 20:00N 37°07' W 001°28'612.7
2018-Jan-20 19:30N 37°12' W 001°23'612.4
2018-Jan-20 19:00N 37°17' W 001°18'612.5
2018-Jan-20 18:30N 37°21' W 001°13'612.8
2018-Jan-20 18:00N 37°26' W 001°08'612.9
2018-Jan-20 17:30N 37°31' W 001°02'4 7.9
2018-Jan-20 16:58N 37°34' W 000°58'0 0.0
2018-Jan-20 16:26N 37°34' W 000°58'0 0.0
2018-Jan-20 15:59N 37°34' W 000°58'  
Track history (hours):
 
Tides and Currents Weather Stations Pressure Air Temp Water Temp Dewpoint Dewpoint Depression Visibility Wind Speed Wind Dir Waves Ship Positions

Esmeralda

Last reported at 2018-Jan-23 00:03 UTC. Time now 2018-Jan-23 02:23 UTC.
Position N 39°21' W 009°50'.

Length 122 m; draft 6.2 m.

Type: Cargo ship. MMSI: 246127000.

Date/timePositionNaut miles runAvg speedWind from/ knotsBaromVisibWave heightAir tempDewpointWater temp
2018-Jan-23 00:03N 39°21' W 009°50'112.1
2018-Jan-22 23:56N 39°20' W 009°50'512.0
2018-Jan-22 23:30N 39°15' W 009°50'612.0
2018-Jan-22 23:00N 39°09' W 009°50'611.9
2018-Jan-22 22:30N 39°03' W 009°50'611.8
2018-Jan-22 22:00N 38°57' W 009°50'612.0
2018-Jan-22 21:31N 38°51' W 009°50'611.8
2018-Jan-22 21:01N 38°45' W 009°50'611.8
2018-Jan-22 20:31N 38°39' W 009°49'611.8
2018-Jan-22 20:00N 38°33' W 009°47'611.6
2018-Jan-22 19:31N 38°28' W 009°46'611.7
2018-Jan-22 19:00N 38°22' W 009°44'611.6
2018-Jan-22 18:29N 38°16' W 009°42'611.7
2018-Jan-22 17:59N 38°10' W 009°41'611.9
2018-Jan-22 17:31N 38°05' W 009°40'611.6
2018-Jan-22 16:59N 37°59' W 009°38'711.7
2018-Jan-22 16:26N 37°52' W 009°36'511.9
2018-Jan-22 16:01N 37°47' W 009°35'712.1
2018-Jan-22 15:27N 37°41' W 009°33'2312.1
2018-Jan-22 13:34N 37°19' W 009°26'4211.2
2018-Jan-22 09:48N 36°42' W 008°60'512.2
2018-Jan-22 09:24N 36°41' W 008°54'16712.4
2018-Jan-21 19:55N 35°58' W 005°34'4 9.9
2018-Jan-21 19:30N 35°59' W 005°29'5 9.3
2018-Jan-21 18:58N 35°59' W 005°23'5 9.9
2018-Jan-21 18:30N 35°55' W 005°19'2 3.0
2018-Jan-21 18:00N 35°54' W 005°19'0 0.0
2018-Jan-21 17:30N 35°54' W 005°19'0 0.0
2018-Jan-21 17:00N 35°54' W 005°19'0 0.0
2018-Jan-21 16:30N 35°54' W 005°19'0 0.0
2018-Jan-21 16:01N 35°54' W 005°19'0 0.0
2018-Jan-21 15:30N 35°54' W 005°19'0 0.0
2018-Jan-21 15:00N 35°54' W 005°19'0 0.8
2018-Jan-21 14:31N 35°54' W 005°19'2 4.6
2018-Jan-21 14:00N 35°55' W 005°17'5 9.6
2018-Jan-21 13:30N 35°59' W 005°13'10910.8
2018-Jan-21 03:26N 36°18' W 003°00'2512.4
2018-Jan-21 01:26N 36°23' W 002°30'511.6
2018-Jan-21 01:00N 36°23' W 002°24'6212.5
2018-Jan-20 20:01N 37°07' W 001°29'012.8
2018-Jan-20 20:00N 37°07' W 001°28'612.7
2018-Jan-20 19:30N 37°12' W 001°23'612.4
2018-Jan-20 19:00N 37°17' W 001°18'612.5
2018-Jan-20 18:30N 37°21' W 001°13'612.8
2018-Jan-20 18:00N 37°26' W 001°08'612.9
2018-Jan-20 17:30N 37°31' W 001°02'4 7.9
2018-Jan-20 16:58N 37°34' W 000°58'0 0.0
2018-Jan-20 16:26N 37°34' W 000°58'0 0.0
2018-Jan-20 15:59N 37°34' W 000°58'  

Dump ship's entire track history